Latest Weather Observations for Coldstream

IDV60801

Issued at 7:31 pm EST Tuesday 4 August 2015 (issued every 30 minutes, with the page automatically refreshed every 10 minutes)

About weather observations | Map of weather stations | Latest weather observations for VIC | Other Formats
Station Details ID: 086383 Name: COLDSTREAM Lat: -37.72 Lon: 145.41 Height: 83.0 m
Data from the previous 72 hours. | See also: Recent months at Coldstream
Date/Time
EST
Temp
°C
App
Temp
°C
Dew
Point
Rel
Hum
%
Delta-T
°C
Wind Press
QNH
hPa
Press
MSL
hPa
Rain
since 9 am
mm
Dir
 
Spd
km/h
Gust
km/h
Spd
kts
Gust
kts
04/07:30pm 7.7 1.2 2.6 70 2.1 N 26 39 14 21 1017.3 1017.4 0.0
04/07:00pm 7.8 2.0 2.3 68 2.3 N 22 32 12 17 1017.7 1017.8 0.0
04/06:30pm 7.9 2.7 2.2 67 2.4 N 19 28 10 15 1018.1 1018.2 0.0
04/06:00pm 8.0 3.1 2.3 67 2.4 N 17 24 9 13 1018.2 1018.3 0.0
04/05:30pm 8.0 2.8 2.5 68 2.3 N 19 28 10 15 1018.1 1018.2 0.0
04/05:00pm 8.4 3.9 2.4 66 2.5 NNW 15 26 8 14 1018.3 1018.4 0.0
04/04:30pm 8.6 4.1 2.4 65 2.6 NNW 15 20 8 11 1018.5 1018.6 0.0
04/04:00pm 8.8 3.9 1.9 62 2.9 NNW 17 24 9 13 1018.8 1018.9 0.0
04/03:30pm 8.8 4.3 2.2 63 2.8 NNW 15 22 8 12 1019.3 1019.4 0.0
04/03:00pm 9.0 4.9 2.3 63 2.8 NW 13 22 7 12 1019.7 1019.8 0.0
04/02:30pm 8.8 4.9 3.4 69 2.3 N 13 19 7 10 1019.8 1019.9 0.0
04/02:00pm 8.6 4.7 3.2 69 2.3 N 13 19 7 10 1019.9 1020.0 0.0
04/01:30pm 8.9 4.9 2.9 66 2.6 NNW 13 19 7 10 1020.2 1020.3 0.0
04/01:00pm 9.3 5.1 1.9 60 3.1 NNW 13 20 7 11 1020.7 1020.8 0.0
04/12:30pm 9.1 4.6 2.0 61 3.0 NNW 15 20 8 11 1021.4 1021.5 0.0
04/12:00pm 8.9 4.8 2.3 63 2.8 NW 13 19 7 10 1022.1 1022.3 0.0
04/11:30am 8.9 5.6 2.7 65 2.6 WNW 9 13 5 7 1022.6 1022.8 0.0
04/11:00am 8.4 5.2 2.8 68 2.4 N 9 13 5 7 1022.9 1023.1 0.0
04/10:30am 7.9 4.7 3.2 72 2.0 NNE 9 13 5 7 1023.3 1023.5 0.0
04/10:00am 6.8 3.5 2.5 74 1.8 N 9 13 5 7 1023.5 1023.7 0.0
04/09:30am 5.5 2.3 3.3 86 0.9 N 9 11 5 6 1023.5 1023.7 0.0
04/09:00am 3.7 2.3 3.6 99 0.0 CALM 0 7 0 4 1023.7 1023.9 2.0
04/08:30am 2.3 0.7 2.2 99 0.0 CALM 0 0 0 0 1023.9 1024.1 2.0
04/08:00am 0.2 -1.8 0.1 99 0.0 CALM 0 0 0 0 1023.9 1024.1 2.0
04/07:30am 0.0 -2.0 -0.1 99 0.0 CALM 0 2 0 1 1023.9 1024.1 2.0
04/07:00am 0.9 -1.0 0.8 99 0.0 CALM 0 6 0 3 1023.7 1023.9 2.0
04/06:30am 0.8 -1.5 0.7 99 0.0 SSW 2 9 1 5 1023.6 1023.8 2.0
04/06:00am 0.6 -1.3 0.3 98 0.1 CALM 0 0 0 0 1023.5 1023.7 2.0
04/05:30am 1.2 -0.6 0.9 98 0.1 CALM 0 0 0 0 1023.2 1023.4 2.0
04/05:00am 1.6 -0.2 1.3 98 0.1 CALM 0 0 0 0 1023.2 1023.4 2.0
04/04:30am 1.4 -0.4 1.1 98 0.1 CALM 0 0 0 0 1023.2 1023.4 2.0
04/04:00am 0.6 -1.4 0.2 97 0.1 CALM 0 0 0 0 1023.1 1023.3 2.0
04/03:30am 2.2 -0.6 1.8 97 0.2 N 6 7 3 4 1023.1 1023.3 2.0
04/03:00am 2.5 0.8 2.1 97 0.2 CALM 0 0 0 0 1023.3 1023.5 2.0
04/02:30am 3.3 1.8 2.9 97 0.2 CALM 0 0 0 0 1023.6 1023.8 2.0
04/02:00am 3.5 2.0 3.2 98 0.1 CALM 0 0 0 0 1023.6 1023.8 2.0
04/01:30am 3.5 1.7 3.2 98 0.1 ESE 2 6 1 3 1023.6 1023.8 2.0
04/01:00am 3.5 1.7 3.4 99 0.0 SSW 2 7 1 4 1023.8 1024.0 1.8
04/12:30am 3.2 1.7 3.1 99 0.0 CALM 0 0 0 0 1023.7 1023.9 1.8
04/12:00am 2.9 1.3 2.6 98 0.1 CALM 0 0 0 0 1023.8 1024.0 1.8
 
Date/Time
EST
Temp
°C
App
Temp
°C
Dew
Point
Rel
Hum
%
Delta-T
°C
Wind Press
QNH
hPa
Press
MSL
hPa
Rain
since 9 am
mm
Dir
 
Spd
km/h
Gust
km/h
Spd
kts
Gust
kts
03/11:30pm 2.9 1.3 2.6 98 0.1 CALM 0 0 0 0 1023.9 1024.1 1.8
03/11:00pm 2.8 1.2 2.5 98 0.1 CALM 0 0 0 0 1023.8 1024.0 1.8
03/10:30pm 2.3 0.6 2.0 98 0.1 CALM 0 0 0 0 1024.0 1024.2 1.8
03/10:00pm 2.2 0.5 1.9 98 0.1 CALM 0 0 0 0 1024.0 1024.2 1.8
03/09:30pm 1.6 -0.2 1.2 97 0.2 CALM 0 0 0 0 1024.0 1024.2 1.8
03/09:00pm 1.6 -0.2 1.2 97 0.2 CALM 0 0 0 0 1023.9 1024.1 1.8
03/08:30pm 0.9 -1.1 0.2 95 0.3 CALM 0 0 0 0 1023.7 1023.9 1.8
03/08:00pm 1.3 -1.4 0.4 94 0.3 NNE 4 7 2 4 1023.5 1023.7 1.8
03/07:30pm 1.7 -0.2 0.4 91 0.5 CALM 0 0 0 0 1023.2 1023.4 1.8
03/07:00pm 3.5 1.0 1.5 87 0.8 NE 4 7 2 4 1023.0 1023.2 1.8
03/06:30pm 5.4 1.9 1.3 75 1.6 S 9 15 5 8 1022.7 1022.9 1.8
03/06:00pm 3.9 1.4 1.4 84 1.0 WSW 4 11 2 6 1022.3 1022.5 1.8
03/05:30pm 6.2 4.5 1.9 74 1.7 CALM 0 6 0 3 1021.9 1022.1 1.8
03/05:00pm 7.1 4.4 2.4 72 1.9 SW 6 9 3 5 1021.7 1021.9 1.8
03/04:30pm 7.0 4.1 2.5 73 1.9 SW 7 15 4 8 1021.3 1021.4 1.8
03/04:00pm 6.1 2.4 2.4 77 1.5 SSW 11 17 6 9 1021.4 1021.5 1.8
03/03:30pm 7.6 3.1 2.3 69 2.2 WSW 15 35 8 19 1021.0 1021.1 1.8
03/03:00pm 7.0 3.1 1.3 67 2.3 S 11 22 6 12 1020.6 1020.7 1.8
03/02:30pm 7.4 1.9 2.1 69 2.2 SSW 20 43 11 23 1020.3 1020.4 1.8
03/02:00pm 8.9 3.9 1.3 59 3.1 SW 17 35 9 19 1019.8 1019.9 1.8
03/01:30pm 7.6 4.0 2.7 71 2.1 S 11 17 6 9 1020.0 1020.1 1.8
03/01:00pm 7.0 0.9 2.5 73 1.9 SSW 24 35 13 19 1019.6 1019.7 1.8
03/12:30pm 8.8 5.6 3.0 67 2.5 W 9 24 5 13 1019.2 1019.3 1.8
03/12:00pm 6.9 2.9 2.6 74 1.8 S 13 24 7 13 1019.5 1019.6 1.8
03/11:47am 7.3 1.9 2.6 72 2.0 SW 20 43 11 23 1019.4 1019.5 1.8
03/11:30am 6.7 4.1 4.2 84 1.1 WSW 7 13 4 7 1019.2 1019.3 1.8
03/11:00am 6.1 0.2 1.4 72 1.9 SSW 22 43 12 23 1019.1 1019.2 0.0
03/10:30am 8.2 3.1 4.0 75 1.8 W 20 30 11 16 1018.4 1018.5 0.0
03/10:00am 7.7 2.6 3.9 77 1.6 WNW 20 33 11 18 1018.1 1018.2 0.0
03/09:30am 7.3 2.2 3.2 75 1.7 WNW 19 26 10 14 1017.6 1017.7 0.0
03/09:00am 7.1 2.6 4.4 83 1.2 NW 17 28 9 15 1017.2 1017.3 11.4
03/08:30am 7.2 2.7 4.3 82 1.3 WNW 17 28 9 15 1016.8 1016.9 11.4
03/08:00am 6.8 2.7 4.3 84 1.1 WNW 15 20 8 11 1016.1 1016.2 11.4
03/07:30am 6.4 2.4 4.7 89 0.7 WNW 15 24 8 13 1015.4 1015.5 11.4
03/07:00am 6.6 1.0 5.2 91 0.6 W 24 35 13 19 1015.1 1015.2 11.4
03/06:30am 7.1 0.0 5.4 89 0.8 W 32 46 17 25 1014.4 1014.5 11.0
03/06:21am 7.4 2.2 5.4 87 0.9 WNW 22 46 12 25 1014.1 1014.2 11.0
03/06:00am 7.5 4.5 5.8 89 0.8 NW 11 17 6 9 1013.2 1013.4 10.4
03/05:30am 7.5 4.2 6.3 92 0.5 WNW 13 20 7 11 1013.4 1013.6 10.4
03/05:00am 7.5 4.9 6.3 92 0.5 N 9 15 5 8 1012.8 1013.0 9.8
03/04:30am 7.9 4.9 6.0 88 0.9 WNW 11 19 6 10 1013.1 1013.3 9.8
03/04:00am 8.4 3.8 5.5 82 1.3 NW 19 33 10 18 1012.6 1012.8 9.2
03/03:30am 8.6 3.0 5.2 79 1.5 NW 24 44 13 24 1012.1 1012.3 9.2
03/03:00am 9.4 4.4 4.4 71 2.2 NW 20 35 11 19 1012.2 1012.4 9.2
03/02:30am 9.4 4.5 4.2 70 2.3 NW 19 30 10 16 1012.3 1012.5 9.2
03/02:00am 8.9 4.5 4.7 75 1.9 NNW 17 28 9 15 1012.2 1012.4 9.2
03/01:30am 8.5 4.5 4.7 77 1.7 NNW 15 20 8 11 1012.5 1012.7 9.2
03/01:00am 8.8 4.3 4.4 74 1.9 NW 17 28 9 15 1012.8 1013.0 9.2
03/12:30am 8.9 5.1 4.1 72 2.1 NW 13 26 7 14 1012.9 1013.1 9.2
03/12:00am 8.9 5.2 4.3 73 2.0 NW 13 26 7 14 1012.9 1013.1 9.2
 
Date/Time
EST
Temp
°C
App
Temp
°C
Dew
Point
Rel
Hum
%
Delta-T
°C
Wind Press
QNH
hPa
Press
MSL
hPa
Rain
since 9 am
mm
Dir
 
Spd
km/h
Gust
km/h
Spd
kts
Gust
kts
02/11:30pm 8.3 5.4 4.5 77 1.7 NNW 9 17 5 9 1013.3 1013.5 9.2
02/11:00pm 8.8 4.2 3.8 71 2.2 WNW 17 24 9 13 1013.1 1013.3 9.2
02/10:30pm 8.6 3.0 5.4 80 1.4 W 24 35 13 19 1013.2 1013.4 9.2
02/10:00pm 8.6 5.1 7.2 91 0.7 WNW 15 22 8 12 1013.0 1013.2 9.2
02/09:30pm 8.5 5.9 7.9 96 0.3 NW 11 17 6 9 1012.5 1012.7 9.2
02/09:00pm 8.4 5.0 7.6 95 0.4 WNW 15 22 8 12 1012.5 1012.7 8.8
02/08:30pm 8.3 4.9 7.5 95 0.4 W 15 22 8 12 1012.6 1012.8 6.8
02/08:00pm 8.4 3.6 7.5 94 0.4 W 22 35 12 19 1012.6 1012.8 5.4
02/07:42pm 8.3 4.5 7.4 94 0.4 WSW 17 52 9 28 1012.7 1012.9 4.2
02/07:30pm 9.0 7.8 8.2 95 0.4 WNW 4 9 2 5 1012.2 1012.4 2.2
02/07:00pm 9.3 6.7 7.7 90 0.8 W 11 19 6 10 1012.2 1012.4 1.2
02/06:30pm 9.8 5.3 6.9 82 1.4 WNW 20 37 11 20 1011.5 1011.6 0.4
02/06:00pm 10.8 6.5 5.1 68 2.6 NNW 17 30 9 16 1010.7 1010.8 0.0
02/05:30pm 11.3 6.8 4.3 62 3.2 N 17 24 9 13 1010.2 1010.3 0.0
02/05:00pm 11.6 7.5 4.3 61 3.3 NNW 15 22 8 12 1010.4 1010.5 0.0
02/04:30pm 12.0 6.5 3.8 57 3.7 NNW 22 35 12 19 1010.3 1010.4 0.0
02/04:00pm 11.9 6.8 3.9 58 3.6 NNW 20 28 11 15 1010.5 1010.6 0.0
02/03:30pm 12.2 7.1 3.9 57 3.7 NNW 20 33 11 18 1010.5 1010.6 0.0
02/03:00pm 12.1 7.5 3.9 57 3.7 NNW 17 32 9 17 1010.6 1010.7 0.0
02/02:30pm 11.9 6.7 3.4 56 3.8 NNW 20 37 11 20 1010.6 1010.7 0.0
02/02:00pm 11.6 5.9 3.1 56 3.7 NNW 22 33 12 18 1010.6 1010.7 0.0
02/01:30pm 13.1 8.1 4.5 56 4.0 NNW 20 35 11 19 1010.9 1011.0 0.0
02/01:00pm 12.4 7.2 3.4 54 4.0 NW 20 30 11 16 1011.4 1011.5 0.0
02/12:30pm 12.3 8.1 4.0 57 3.7 NW 15 24 8 13 1011.8 1012.0 0.0
02/12:00pm 11.8 6.9 5.0 63 3.1 NW 20 33 11 18 1012.4 1012.6 0.0
02/11:30am 10.7 5.1 3.5 61 3.2 NW 22 32 12 17 1012.9 1013.1 0.0
02/11:00am 11.3 6.1 3.3 58 3.5 NW 20 35 11 19 1013.2 1013.4 0.0
02/10:30am 11.1 7.0 4.3 63 3.1 NW 15 24 8 13 1013.3 1013.5 0.0
02/10:00am 9.5 5.7 3.9 68 2.5 NNW 13 22 7 12 1013.3 1013.5 0.0
02/09:30am 8.7 5.8 4.5 75 1.9 N 9 15 5 8 1013.4 1013.6 0.0
02/09:00am 7.0 3.9 3.6 79 1.5 N 9 13 5 7 1013.5 1013.7 0.6
02/08:30am 7.0 4.0 4.1 82 1.3 N 9 15 5 8 1013.5 1013.7 0.6
02/08:00am 6.0 3.0 4.0 87 0.9 N 9 13 5 7 1013.7 1013.9 0.6
02/07:30am 5.7 3.4 4.8 94 0.4 NNW 6 11 3 6 1013.8 1014.0 0.6
02/07:00am 5.5 4.4 5.1 97 0.2 CALM 0 6 0 3 1013.9 1014.1 0.6
02/06:30am 5.5 4.4 5.1 97 0.2 CALM 0 0 0 0 1013.7 1013.9 0.6
02/06:00am 5.6 4.5 5.2 97 0.2 CALM 0 0 0 0 1013.6 1013.8 0.6
02/05:30am 5.5 4.4 4.9 96 0.3 CALM 0 0 0 0 1013.6 1013.8 0.4
02/05:00am 5.5 4.4 4.9 96 0.3 CALM 0 0 0 0 1013.4 1013.6 0.4
02/04:30am 5.7 4.6 5.0 95 0.3 CALM 0 0 0 0 1013.4 1013.6 0.4
02/04:00am 5.9 3.7 5.3 96 0.3 SW 6 13 3 7 1013.7 1013.9 0.4
02/03:30am 5.8 4.8 5.4 97 0.2 CALM 0 0 0 0 1013.9 1014.1 0.4
02/03:00am 5.9 4.9 5.6 98 0.1 CALM 0 0 0 0 1014.6 1014.7 0.4
02/02:30am 5.9 4.9 5.6 98 0.1 CALM 0 0 0 0 1014.8 1014.9 0.4
02/02:00am 5.7 4.6 5.3 97 0.2 CALM 0 0 0 0 1014.9 1015.0 0.4
02/01:30am 5.6 4.1 5.2 97 0.2 SE 2 6 1 3 1015.1 1015.2 0.4
02/01:00am 5.5 4.4 5.1 97 0.2 CALM 0 0 0 0 1015.6 1015.7 0.4
02/12:30am 5.5 4.4 5.1 97 0.2 CALM 0 0 0 0 1016.2 1016.3 0.4
02/12:00am 5.8 4.8 5.4 97 0.2 CALM 0 0 0 0 1016.6 1016.7 0.4
 
Date/Time
EST
Temp
°C
App
Temp
°C
Dew
Point
Rel
Hum
%
Delta-T
°C
Wind Press
QNH
hPa
Press
MSL
hPa
Rain
since 9 am
mm
Dir
 
Spd
km/h
Gust
km/h
Spd
kts
Gust
kts
01/11:30pm 5.5 4.4 5.1 97 0.2 CALM 0 0 0 0 1015.5 1015.6 0.4
01/11:00pm 5.7 4.6 5.3 97 0.2 CALM 0 0 0 0 1016.6 1016.7 0.4
01/10:30pm 5.6 4.2 5.3 98 0.1 ESE 2 7 1 4 1016.2 1016.3 0.4
01/10:00pm 5.6 4.5 5.2 97 0.2 CALM 0 0 0 0 1016.9 1017.0 0.4
01/09:30pm 5.3 4.2 4.9 97 0.2 CALM 0 6 0 3 1016.3 1016.4 0.4
01/09:00pm 5.9 4.9 5.5 97 0.2 CALM 0 0 0 0 1016.6 1016.7 0.4
01/08:30pm 5.9 4.8 5.3 96 0.3 CALM 0 0 0 0 1016.1 1016.2 0.4
01/08:00pm 6.6 5.7 5.9 95 0.3 CALM 0 0 0 0 1016.1 1016.2 0.4

Other Formats:

Comma delimited format used in spreadsheet applications
http://www.bom.gov.au/fwo/IDV60801/IDV60801.94864.axf

JavaScript Object Notation format (JSON) in row-major order
http://www.bom.gov.au/fwo/IDV60801/IDV60801.94864.json